Latest Weather Observations for Tamworth Airport

IDN60801

Issued at 9:32 am EST Thursday 28 May 2015 (issued every 30 minutes, with the page automatically refreshed every 10 minutes)

About weather observations | Map of weather stations | Latest weather observations for NSW | Other Formats
Station Details ID: 055325 Name: TAMWORTH AIRPORT AWS Lat: -31.07 Lon: 150.84 Height: 394.9 m
Data from the previous 72 hours. | See also: Recent months at Tamworth Airport
Date/Time
EST
Temp
°C
App
Temp
°C
Dew
Point
Rel
Hum
%
Delta-T
°C
Wind Press
QNH
hPa
Press
MSL
hPa
Rain
since 9 am
mm
Dir
 
Spd
km/h
Gust
km/h
Spd
kts
Gust
kts
28/09:30am 14.7 14.8 10.3 75 2.3 CALM 0 0 0 0 1025.9 1025.7 0.2
28/09:00am 12.6 12.7 10.1 85 1.3 CALM 0 2 0 1 1025.9 1025.7 0.6
28/08:30am 11.8 10.6 9.5 86 1.2 E 6 7 3 4 1025.5 1025.3 0.6
28/08:00am 11.1 11.0 9.4 89 0.9 CALM 0 0 0 0 1025.6 1025.4 0.6
28/07:30am 10.9 10.7 9.0 88 1.0 CALM 0 0 0 0 1025.3 1025.0 0.2
28/07:00am 10.4 10.1 8.5 88 0.9 CALM 0 0 0 0 1024.9 1024.6 0.2
28/06:30am 10.5 9.4 8.4 87 1.0 WSW 4 7 2 4 1024.8 1024.5 0.2
28/06:00am 10.8 10.1 8.7 87 1.1 NE 2 6 1 3 1024.3 1024.0 0.2
28/05:30am 11.0 9.4 8.8 86 1.1 SE 7 11 4 6 1023.9 1023.6 0.2
28/05:00am 10.9 8.5 8.8 87 1.1 SSE 11 13 6 7 1023.7 1023.4 0.2
28/04:30am 10.9 8.9 8.8 87 1.1 S 9 9 5 5 1023.5 1023.2 0.2
28/04:00am 10.5 9.1 8.8 89 0.9 SW 6 9 3 5 1023.5 1023.2 0.2
28/03:30am 10.7 9.3 8.8 88 1.0 S 6 9 3 5 1023.5 1023.2 0.2
28/03:00am 10.5 9.4 8.6 88 0.9 S 4 6 2 3 1023.8 1023.5 0.2
28/02:30am 10.9 9.3 8.7 86 1.1 ESE 7 11 4 6 1024.1 1023.8 0.2
28/02:00am 11.2 8.7 8.4 83 1.4 ESE 11 13 6 7 1024.3 1024.0 0.0
28/01:30am 11.8 9.8 8.5 80 1.7 SE 9 11 5 6 1024.3 1024.0 0.0
28/01:00am 11.5 10.0 8.4 81 1.6 SSE 6 11 3 6 1024.5 1024.2 0.0
28/12:30am 11.8 10.1 8.5 80 1.7 S 7 11 4 6 1024.4 1024.1 0.0
28/12:00am 11.1 9.5 8.1 82 1.5 S 6 9 3 5 1024.0 1023.7 0.0
 
Date/Time
EST
Temp
°C
App
Temp
°C
Dew
Point
Rel
Hum
%
Delta-T
°C
Wind Press
QNH
hPa
Press
MSL
hPa
Rain
since 9 am
mm
Dir
 
Spd
km/h
Gust
km/h
Spd
kts
Gust
kts
27/11:30pm 10.9 10.1 8.0 82 1.4 SSE 2 11 1 6 1024.2 1023.9 0.0
27/11:00pm 11.8 9.4 8.5 80 1.7 S 11 13 6 7 1024.2 1023.9 0.0
27/10:30pm 11.1 10.6 8.0 81 1.5 CALM 0 0 0 0 1024.3 1024.0 0.0
27/10:00pm 12.0 10.3 8.5 79 1.8 SSE 7 9 4 5 1024.2 1023.9 0.0
27/09:30pm 12.5 11.0 8.4 76 2.1 SE 6 7 3 4 1024.1 1023.8 0.0
27/09:00pm 12.5 11.0 8.4 76 2.1 SSE 6 7 3 4 1024.3 1024.0 0.0
27/08:30pm 13.1 11.5 8.6 74 2.3 E 7 9 4 5 1024.2 1023.9 0.0
27/08:00pm 13.2 11.6 8.7 74 2.3 SE 7 11 4 6 1024.5 1024.2 0.0
27/07:30pm 13.5 12.0 8.4 71 2.6 SSE 6 11 3 6 1024.3 1024.0 0.0
27/07:00pm 13.2 12.8 8.3 72 2.5 CALM 0 0 0 0 1024.0 1023.7 0.0
27/06:30pm 14.0 13.6 8.2 68 3.0 CALM 0 0 0 0 1023.5 1023.2 0.0
27/06:00pm 14.6 14.3 8.5 67 3.1 CALM 0 0 0 0 1023.5 1023.2 0.0
27/05:30pm 14.3 12.1 7.8 65 3.3 SSW 9 9 5 5 1023.6 1023.3 0.0
27/05:00pm 15.9 14.2 7.7 58 4.2 SSW 6 7 3 4 1023.2 1022.9 0.0
27/04:30pm 17.0 15.1 7.6 54 4.8 WSW 7 11 4 6 1023.2 1022.9 0.0
27/04:00pm 17.5 14.7 7.0 50 5.3 SW 11 17 6 9 1023.2 1022.9 0.0
27/03:30pm 18.2 16.0 6.1 45 6.1 SW 7 15 4 8 1023.1 1022.8 0.0
27/03:00pm 19.0 16.3 5.8 42 6.6 SW 9 17 5 9 1023.1 1022.8 0.0
27/02:30pm 19.5 16.8 5.6 40 7.0 WNW 9 17 5 9 1023.5 1023.2 0.0
27/02:00pm 19.6 16.7 4.5 37 7.4 W 9 15 5 8 1023.8 1023.5 0.0
27/01:30pm 19.2 15.9 4.6 38 7.2 NW 11 17 6 9 1023.8 1023.5 0.0
27/01:00pm 18.5 15.3 3.2 36 7.2 WNW 9 15 5 8 1024.1 1023.8 0.0
27/12:30pm 18.5 15.1 3.9 38 7.0 NW 11 19 6 10 1024.6 1024.3 0.0
27/12:00pm 17.8 15.0 5.1 43 6.2 NW 9 13 5 7 1025.3 1025.0 0.0
27/11:30am 16.9 14.6 5.5 47 5.6 NW 7 11 4 6 1026.0 1025.8 0.0
27/11:00am 15.4 12.8 5.9 53 4.6 W 9 13 5 7 1026.3 1026.0 0.0
27/10:30am 15.1 13.0 5.9 54 4.5 NNW 6 11 3 6 1026.6 1026.3 0.0
27/10:00am 13.6 11.9 5.7 59 3.8 NE 4 9 2 5 1026.6 1026.3 0.0
27/09:30am 11.4 10.3 5.1 65 2.9 CALM 0 0 0 0 1026.9 1026.6 0.0
27/09:00am 10.6 8.4 6.0 73 2.2 ESE 7 9 4 5 1026.6 1026.3 0.0
27/08:30am 8.8 6.5 5.5 80 1.5 SSE 7 9 4 5 1026.7 1026.4 0.0
27/08:00am 8.2 4.4 5.8 85 1.1 SE 15 19 8 10 1026.0 1025.8 0.0
27/07:30am 6.9 3.5 5.8 93 0.5 SE 13 15 7 8 1026.0 1025.8 0.0
27/07:00am 4.6 0.7 3.6 93 0.4 SSE 13 15 7 8 1025.8 1025.6 0.0
27/06:30am 4.7 0.5 3.7 93 0.4 SSE 15 17 8 9 1025.4 1025.1 0.0
27/06:06am 3.8 0.6 2.8 93 0.4 SSW 9 11 5 6 1025.4 1025.1 0.0
27/06:00am 3.5 -0.2 2.5 93 0.4 SSW 11 11 6 6 1025.4 1025.1 0.0
27/05:30am 4.3 2.1 3.3 93 0.4 S 4 7 2 4 1025.3 1025.0 0.0
27/05:00am 2.5 0.7 1.5 93 0.4 CALM 0 0 0 0 1025.2 1024.9 0.0
27/04:30am 4.1 2.6 2.9 92 0.5 CALM 0 2 0 1 1025.2 1024.9 0.0
27/04:00am 5.5 2.2 4.5 93 0.4 SE 11 13 6 7 1025.3 1025.0 0.0
27/03:44am 5.4 2.1 4.4 93 0.4 SE 11 13 6 7 1025.2 1024.9 0.0
27/03:30am 4.9 2.4 3.7 92 0.5 SSE 6 13 3 7 1025.1 1024.8 0.0
27/03:00am 4.9 2.2 3.7 92 0.5 WSW 7 9 4 5 1025.7 1025.5 0.0
27/02:30am 4.9 3.5 3.7 92 0.5 CALM 0 7 0 4 1025.8 1025.6 0.0
27/02:10am 5.7 4.1 4.5 92 0.5 ENE 2 6 1 3 1025.7 1025.5 0.0
27/02:00am 6.1 3.8 4.9 92 0.5 ENE 6 7 3 4 1025.6 1025.4 0.0
27/01:30am 7.1 5.4 5.9 92 0.6 SSE 4 7 2 4 1025.9 1025.7 0.0
27/01:14am 6.7 4.9 5.5 92 0.5 S 4 7 2 4 1025.8 1025.6 0.0
27/01:01am 6.3 4.7 4.6 89 0.8 SSW 2 6 1 3 1026.2 1025.9 0.0
27/01:00am 6.3 4.7 4.6 89 0.7 SSW 2 6 1 3 1026.2 1025.9 0.0
27/12:30am 7.6 5.0 5.9 89 0.8 SSE 9 11 5 6 1026.2 1025.9 0.0
27/12:00am 7.9 4.9 6.0 88 0.9 SSE 11 15 6 8 1026.2 1025.9 0.0
 
Date/Time
EST
Temp
°C
App
Temp
°C
Dew
Point
Rel
Hum
%
Delta-T
°C
Wind Press
QNH
hPa
Press
MSL
hPa
Rain
since 9 am
mm
Dir
 
Spd
km/h
Gust
km/h
Spd
kts
Gust
kts
26/11:30pm 8.5 5.2 6.6 88 0.9 SSE 13 15 7 8 1026.3 1026.0 0.0
26/11:00pm 9.0 7.0 7.3 89 0.8 E 7 9 4 5 1026.7 1026.4 0.0
26/10:30pm 9.3 8.4 7.6 89 0.8 SW 2 7 1 4 1026.7 1026.4 0.0
26/10:00pm 9.1 8.5 7.4 89 0.8 CALM 0 0 0 0 1027.0 1026.7 0.0
26/09:30pm 9.2 8.6 7.2 87 1.0 CALM 0 2 0 1 1026.9 1026.6 0.0
26/09:00pm 9.6 8.2 7.4 86 1.1 NE 4 7 2 4 1026.9 1026.6 0.0
26/08:30pm 10.0 8.4 7.8 86 1.1 N 6 9 3 5 1027.1 1026.8 0.0
26/08:00pm 9.9 8.0 7.7 86 1.1 NNE 7 11 4 6 1027.0 1026.7 0.0
26/07:30pm 10.5 8.7 8.1 85 1.2 WSW 7 11 4 6 1026.7 1026.4 0.0
26/07:00pm 10.7 8.8 7.6 81 1.5 W 7 11 4 6 1026.8 1026.5 0.0
26/06:30pm 11.8 10.9 7.9 77 1.9 S 2 7 1 4 1026.2 1025.9 0.0
26/06:00pm 12.4 12.0 8.1 75 2.2 CALM 0 0 0 0 1025.9 1025.7 0.0
26/05:30pm 13.0 11.4 8.1 72 2.5 W 6 7 3 4 1025.9 1025.7 0.0
26/05:00pm 13.9 12.2 8.3 69 2.8 NW 7 9 4 5 1026.3 1026.0 0.0
26/04:30pm 14.9 12.8 8.2 64 3.4 NNW 9 11 5 6 1026.2 1025.9 0.0
26/04:00pm 15.9 14.6 7.7 58 4.2 NNW 4 7 2 4 1026.4 1026.1 0.0
26/03:30pm 16.8 16.0 6.3 50 5.2 CALM 0 0 0 0 1026.5 1026.2 0.0
26/03:00pm 17.0 15.1 6.8 51 5.1 WNW 6 7 3 4 1026.9 1026.6 0.0
26/02:30pm 18.0 15.9 5.6 44 6.2 NW 6 9 3 5 1027.0 1026.7 0.0
26/02:00pm 17.6 15.8 5.5 45 5.9 N 4 7 2 4 1027.2 1026.9 0.0
26/01:30pm 17.6 15.6 6.2 47 5.7 NW 6 11 3 6 1027.3 1027.0 0.0
26/01:00pm 17.2 14.9 5.8 47 5.6 NNW 7 11 4 6 1027.9 1027.7 0.0
26/12:30pm 17.9 16.2 4.1 40 6.6 NE 2 7 1 4 1028.2 1028.0 0.0
26/12:00pm 16.3 14.1 5.3 48 5.3 E 6 9 3 5 1028.5 1028.3 0.0
26/11:30am 15.3 12.9 5.2 51 4.9 SE 7 11 4 6 1029.1 1028.8 0.0
26/11:00am 14.7 12.6 6.0 56 4.2 ESE 6 9 3 5 1029.8 1029.5 0.0
26/10:30am 12.9 10.7 5.3 60 3.6 SSW 6 9 3 5 1030.0 1029.8 0.0
26/10:00am 11.9 11.0 6.2 68 2.7 CALM 0 0 0 0 1030.1 1029.9 0.0
26/09:30am 11.3 10.3 5.4 67 2.8 CALM 0 6 0 3 1030.2 1030.0 0.0
26/09:00am 9.5 7.3 5.3 75 1.9 NE 6 7 3 4 1030.7 1030.5 0.0
26/08:30am 8.9 6.1 5.3 78 1.7 ESE 9 11 5 6 1030.3 1030.1 0.0
26/08:00am 8.0 5.8 5.5 84 1.1 SSE 6 7 3 4 1030.0 1029.8 0.0
26/07:30am 6.9 4.5 5.1 88 0.8 SW 7 9 4 5 1029.9 1029.7 0.0
26/07:00am 5.8 2.8 4.3 90 0.7 SSE 9 11 5 6 1029.1 1028.8 0.0
26/06:30am 5.6 2.3 4.4 92 0.5 SE 11 13 6 7 1029.1 1028.8 0.0
26/06:00am 4.9 1.8 3.7 92 0.5 SE 9 11 5 6 1029.0 1028.7 0.0
26/05:30am 4.7 2.0 3.5 92 0.5 S 7 11 4 6 1029.1 1028.8 0.0
26/05:00am 4.7 2.1 3.4 91 0.5 SE 6 7 3 4 1029.1 1028.8 0.0
26/04:30am 4.7 2.1 3.0 89 0.7 ESE 6 9 3 5 1029.0 1028.7 0.0
26/04:00am 5.9 3.0 4.4 90 0.7 SSE 9 11 5 6 1029.1 1028.8 0.0
26/03:30am 6.0 3.1 4.5 90 0.7 SSE 9 11 5 6 1029.3 1029.0 0.0
26/03:00am 6.0 3.5 4.5 90 0.7 SSW 7 11 4 6 1029.6 1029.3 0.0
26/02:30am 7.0 3.8 5.2 88 0.8 SE 11 11 6 6 1029.5 1029.2 0.0
26/02:00am 7.6 3.8 5.7 88 0.9 S 15 17 8 9 1030.0 1029.8 0.0
26/01:30am 6.3 3.4 4.8 90 0.7 SSW 9 15 5 8 1029.6 1029.3 0.0
26/01:00am 7.5 6.5 5.6 88 0.9 CALM 0 0 0 0 1029.9 1029.7 0.0
26/12:30am 8.1 7.2 6.2 88 0.9 CALM 0 0 0 0 1030.2 1030.0 0.0
26/12:00am 8.9 6.3 6.3 84 1.2 ESE 9 15 5 8 1030.2 1030.0 0.0
 
Date/Time
EST
Temp
°C
App
Temp
°C
Dew
Point
Rel
Hum
%
Delta-T
°C
Wind Press
QNH
hPa
Press
MSL
hPa
Rain
since 9 am
mm
Dir
 
Spd
km/h
Gust
km/h
Spd
kts
Gust
kts
25/11:30pm 9.3 6.2 7.1 86 1.1 SSE 13 15 7 8 1030.6 1030.4 0.0
25/11:00pm 8.7 6.1 6.3 85 1.1 SSE 9 13 5 7 1030.1 1029.9 0.0
25/10:30pm 9.2 6.3 6.6 84 1.2 SSE 11 13 6 7 1029.9 1029.7 0.0
25/10:00pm 9.0 6.2 6.8 86 1.0 SE 11 15 6 8 1029.8 1029.5 0.0
25/09:30pm 9.2 6.2 6.1 81 1.5 SE 11 13 6 7 1030.4 1030.2 0.0
25/09:00pm 10.1 8.1 6.4 78 1.7 E 6 7 3 4 1030.6 1030.4 0.0
25/08:30pm 10.4 8.3 6.7 78 1.8 SSE 7 9 4 5 1030.5 1030.3 0.0
25/08:00pm 12.2 10.4 7.3 72 2.4 ESE 6 7 3 4 1030.6 1030.4 0.0
25/07:30pm 12.0 10.1 7.7 75 2.1 E 7 7 4 4 1030.4 1030.2 0.0
25/07:00pm 12.1 10.2 7.6 74 2.2 ESE 7 9 4 5 1030.4 1030.2 0.0
25/06:30pm 12.8 10.5 7.3 69 2.7 SW 9 11 5 6 1030.2 1030.0 0.0
25/06:00pm 13.8 11.8 6.9 63 3.4 SSW 7 9 4 5 1029.8 1029.5 0.0
25/05:30pm 13.8 11.4 6.9 63 3.4 SSW 9 9 5 5 1029.2 1028.9 0.0
25/05:00pm 14.9 12.0 6.7 58 4.0 SW 11 13 6 7 1029.4 1029.1 0.0
25/04:30pm 16.3 13.8 6.4 52 4.9 SW 9 11 5 6 1029.2 1028.9 0.0
25/04:00pm 17.3 14.3 5.9 47 5.6 SW 11 15 6 8 1029.2 1028.9 0.0
25/03:30pm 18.3 15.6 5.8 44 6.2 WSW 9 13 5 7 1029.0 1028.7 0.0
25/03:00pm 18.6 16.8 5.5 42 6.5 S 4 11 2 6 1029.2 1028.9 0.0
25/02:30pm 19.0 16.2 5.1 40 6.9 WSW 9 13 5 7 1029.8 1029.5 0.0
25/02:00pm 18.9 16.0 4.7 39 6.9 WNW 9 17 5 9 1030.2 1030.0 0.0
25/01:30pm 18.2 15.7 6.4 46 6.0 WSW 9 13 5 7 1030.1 1029.9 0.0
25/01:00pm 17.9 15.2 5.8 45 6.0 WNW 9 17 5 9 1030.5 1030.3 0.0
25/12:30pm 18.5 16.3 6.0 44 6.3 WNW 7 13 4 7 1030.6 1030.4 0.0
25/12:00pm 17.9 15.2 5.8 45 6.0 NW 9 13 5 7 1031.1 1030.9 0.0
25/11:30am 17.3 15.0 5.6 46 5.8 NNE 7 11 4 6 1031.5 1031.2 0.0
25/11:00am 17.1 14.6 4.8 44 5.9 NE 7 13 4 7 1032.3 1032.1 0.0
25/10:30am 16.1 13.6 4.5 46 5.6 NNE 7 9 4 5 1032.9 1032.7 0.0
25/10:00am 14.9 12.6 4.6 50 4.9 NNE 6 7 3 4 1033.1 1032.9 0.0

Other Formats:

Comma delimited format used in spreadsheet applications
http://www.bom.gov.au/fwo/IDN60801/IDN60801.95762.axf

JavaScript Object Notation format (JSON) in row-major order
http://www.bom.gov.au/fwo/IDN60801/IDN60801.95762.json